Tropical Cyclones
[Index]
Main Index Home Page Stock Weather Photos Extreme Storms Discussion Storm News and Storm Chasing Reports Tropical Cyclones / Hurricanes / Typhoons Weather Data and Links Wild Fires / Bushfires Weather Observation Techniques Weather Picture Catalogue Tornado Pictures and Reports Stock Video Footage and DVDs for sale
Season 2015-2016 Tropical Cyclone 201601 Track Map
Season 2015-2016 Summaries: [BoM-AU] [JTWC-AU] [JTWC-SIO] [JTWC-SPAC] [JTWC-SH]
<<- Previous TC | JTWC 2015-2016 Season | Next TC ->>

click for intensity scale information  Lat/long Grid: Show Hide

 Date Labels: Show Hide

Joint Typhoon Warning Centre Cyclone Data

Name: 201601

31 Jul 2015 18:00 UTC to 06 Aug 2015 18:00 UTC

    date/time    lat    long     hPa   cat  kts
2015-07-31 18    7.6   168.9    1004         20          
2015-08-01 00    8.0   169.7    1004         20          
2015-08-01 06    8.7   170.4    1004         25          
2015-08-01 12    9.7   171.0    1004         25          
2015-08-01 18   10.6   171.4    1003         25          
2015-08-02 00   10.9   171.8    1004         25          
2015-08-02 06   11.0   172.2     996         35          
2015-08-02 12   11.0   172.4     993    1    40          
2015-08-02 18   10.9   172.4     996         35          
2015-08-03 00   10.8   172.4     996         35          
2015-08-03 06   10.5   172.4     996         35          
2015-08-03 12   10.6   172.0     996         35          
2015-08-03 18   10.5   171.7    1000         30          
2015-08-04 00   10.5   171.3    1004         25          
2015-08-04 06   10.7   170.7    1004         25          
2015-08-04 12   11.1   170.3    1004         25          
2015-08-04 18   11.5   170.1    1004         25          
2015-08-05 00   12.5   169.8    1004         25          
2015-08-05 06   12.7   169.6    1004         25          
2015-08-05 12   13.2   169.9    1007         20          
2015-08-05 18   13.8   169.8    1003         15          
2015-08-06 00   14.5   169.9    1003         15          
2015-08-06 06   15.2   170.0    1010         15          
2015-08-06 12   15.7   170.3    1010         15          
2015-08-06 18   15.8   170.7    1010         15          
Winds are 1-min average.

Tropical cyclone tracks developed by Michael Bath using data from the Joint Typhoon Warning Centre Best Tracks and Google Maps.


[Australian Severe Weather index] [Copyright Notice] [Email Contacts] [Search This Site] [Privacy Policy]
Document: tropical_cyclone_201601.htm Updated: 28 June 2017